Time;durP1;ratioP1;P1;durP2;ratioP2;P2;SDS_P1;SDS_P2;PMS_P1;PMS_P2;Temp;Humidity;BMP_temperature;BMP_pressure;BME280_temperature;BME280_humidity;BME280_pressure;Samples;Min_cycle;Max_cycle;Signal;HPM_P1;HPM_P2
2023/05/23 00:02:18;;;;;;;15.27;11.02;;;12.50;99.90;;;;;;5056548;28;20033;-75
2023/05/23 00:04:45;;;;;;;17.70;11.63;;;12.50;99.90;;;;;;5051614;28;20497;-74
2023/05/23 00:07:13;;;;;;;16.88;10.27;;;12.60;99.90;;;;;;5032142;28;20045;-76
2023/05/23 00:09:41;;;;;;;15.25;11.00;;;12.50;99.90;;;;;;5052832;28;20071;-76
2023/05/23 00:12:09;;;;;;;15.95;10.55;;;12.50;99.90;;;;;;5050790;28;20138;-76
2023/05/23 00:14:39;;;;;;;12.75;10.30;;;12.40;99.90;;;;;;5050381;28;20044;-75
2023/05/23 00:17:06;;;;;;;16.63;10.60;;;12.30;99.90;;;;;;5051586;28;20406;-75
2023/05/23 00:19:35;;;;;;;13.32;10.65;;;12.30;99.90;;;;;;5050530;28;20497;-76
2023/05/23 00:22:03;;;;;;;14.88;10.90;;;12.40;99.90;;;;;;5036137;28;20395;-77
2023/05/23 00:24:30;;;;;;;13.85;10.40;;;12.30;99.90;;;;;;5048262;28;20114;-76
2023/05/23 00:26:59;;;;;;;15.65;10.57;;;12.30;99.90;;;;;;5038769;28;20493;-76
2023/05/23 00:29:27;;;;;;;13.95;10.25;;;12.30;99.90;;;;;;5047290;28;20067;-75
2023/05/23 00:31:54;;;;;;;13.00;10.18;;;12.30;99.90;;;;;;5039364;28;20164;-75
2023/05/23 00:34:22;;;;;;;12.02;9.88;;;12.20;99.90;;;;;;5038356;28;20072;-75
2023/05/23 00:36:49;;;;;;;13.32;10.90;;;12.20;99.90;;;;;;5046715;28;20041;-75
2023/05/23 00:39:19;;;;;;;14.65;10.82;;;12.10;99.90;;;;;;5047464;28;20109;-77
2023/05/23 00:41:47;;;;;;;19.75;11.70;;;12.00;99.90;;;;;;5053674;28;20048;-74
2023/05/23 00:44:16;;;;;;;17.20;11.45;;;12.00;99.90;;;;;;5039862;28;20473;-74
2023/05/23 00:46:45;;;;;;;14.15;11.48;;;11.90;99.90;;;;;;5049814;28;20132;-74
2023/05/23 00:49:13;;;;;;;36.00;26.58;;;11.90;99.90;;;;;;5048744;28;20540;-75
2023/05/23 00:51:42;;;;;;;12.95;10.20;;;11.90;99.90;;;;;;5047883;28;20049;-75
2023/05/23 00:54:10;;;;;;;14.32;10.93;;;12.00;99.90;;;;;;5046735;28;20500;-76
2023/05/23 00:56:38;;;;;;;15.40;11.23;;;12.00;99.90;;;;;;5045310;28;20124;-76
2023/05/23 00:59:07;;;;;;;13.95;10.77;;;12.00;99.90;;;;;;5047568;28;20063;-77
2023/05/23 01:01:36;;;;;;;13.35;10.70;;;11.90;99.90;;;;;;5033194;28;20531;-74
2023/05/23 01:04:05;;;;;;;16.45;10.80;;;11.90;99.90;;;;;;5033660;28;20038;-74
2023/05/23 01:06:32;;;;;;;15.38;10.25;;;11.90;99.90;;;;;;5024705;28;20041;-76
2023/05/23 01:09:01;;;;;;;17.67;11.60;;;11.90;99.90;;;;;;5029022;28;20060;-74
2023/05/23 01:11:35;;;;;;;16.92;12.05;;;11.90;99.90;;;;;;5044928;28;20131;-75
2023/05/23 01:14:11;;;;;;;13.93;11.25;;;11.90;99.90;;;;;;5034153;28;20049;-75
2023/05/23 01:16:47;;;;;;;13.27;11.20;;;11.80;99.90;;;;;;5044252;28;20532;-75
2023/05/23 01:19:43;;;;;;;13.15;10.23;;;11.80;99.90;;;;;;5046430;28;20536;-75
2023/05/23 01:22:23;;;;;;;13.98;10.20;;;11.80;99.90;;;;;;5025268;28;20076;-75
2023/05/23 01:24:57;;;;;;;12.85;10.35;;;11.80;99.90;;;;;;5047129;28;20113;-76
2023/05/23 01:27:47;;;;;;;13.27;10.98;;;11.70;99.90;;;;;;5040324;28;20049;-76
2023/05/23 01:30:19;;;;;;;14.27;10.27;;;11.70;99.90;;;;;;5027531;28;20038;-75
2023/05/23 01:32:50;;;;;;;14.40;11.00;;;11.70;99.90;;;;;;5030155;28;20045;-77
2023/05/23 01:35:24;;;;;;;14.43;10.60;;;11.70;99.90;;;;;;5012840;28;20501;-76
2023/05/23 01:37:52;;;;;;;16.05;10.00;;;11.60;99.90;;;;;;5029138;28;20042;-74
2023/05/23 01:40:20;;;;;;;13.38;10.60;;;11.60;99.90;;;;;;5029257;28;20045;-74
2023/05/23 01:42:48;;;;;;;17.00;10.90;;;11.60;99.90;;;;;;5030369;28;20037;-75
2023/05/23 01:45:18;;;;;;;13.63;10.25;;;11.60;99.90;;;;;;5029579;28;20104;-76
2023/05/23 01:47:48;;;;;;;14.23;10.13;;;11.50;99.90;;;;;;5029029;28;20041;-75
2023/05/23 01:50:17;;;;;;;14.80;10.23;;;11.60;99.90;;;;;;5036568;28;20076;-75
2023/05/23 01:52:45;;;;;;;13.77;10.52;;;11.50;99.90;;;;;;5044444;28;20056;-75
2023/05/23 01:55:21;;;;;;;10.40;9.25;;;11.40;99.90;;;;;;5028986;28;20050;-76
2023/05/23 01:57:51;;;;;;;13.93;9.93;;;11.40;99.90;;;;;;5028969;28;20055;-75
2023/05/23 02:00:21;;;;;;;12.25;10.07;;;11.40;99.90;;;;;;5028353;28;20104;-75
2023/05/23 02:02:49;;;;;;;13.38;10.30;;;11.30;99.90;;;;;;5029461;28;20041;-75
2023/05/23 02:05:17;;;;;;;11.38;9.50;;;11.30;99.90;;;;;;5028486;28;20054;-76
2023/05/23 02:07:46;;;;;;;13.45;9.80;;;11.30;99.90;;;;;;5029009;28;20067;-74
2023/05/23 02:10:13;;;;;;;12.88;9.45;;;11.30;99.90;;;;;;5027798;28;20037;-75
2023/05/23 02:12:40;;;;;;;12.27;9.27;;;11.30;99.90;;;;;;5029121;28;20096;-76
2023/05/23 02:15:09;;;;;;;12.75;9.98;;;11.30;99.90;;;;;;5012325;28;20136;-76
2023/05/23 02:17:40;;;;;;;15.13;10.23;;;11.20;99.90;;;;;;5028210;28;20042;-76
2023/05/23 02:20:08;;;;;;;13.02;10.32;;;11.20;99.90;;;;;;5028475;28;20056;-76
2023/05/23 02:22:36;;;;;;;13.38;9.82;;;11.30;99.90;;;;;;5036145;28;20061;-76
2023/05/23 02:25:04;;;;;;;11.77;9.23;;;11.20;99.90;;;;;;5029208;28;20053;-76
2023/05/23 02:27:33;;;;;;;12.45;9.40;;;11.20;99.90;;;;;;5039301;28;20041;-76
2023/05/23 02:30:00;;;;;;;13.48;9.65;;;11.20;99.90;;;;;;5022521;28;20129;-76
2023/05/23 02:32:28;;;;;;;13.10;9.85;;;11.20;99.90;;;;;;5021652;28;20045;-76
2023/05/23 02:34:58;;;;;;;11.35;8.93;;;11.20;99.90;;;;;;5021714;28;20061;-76
2023/05/23 02:37:25;;;;;;;12.85;9.77;;;11.10;99.90;;;;;;5035686;28;20040;-76
2023/05/23 02:39:53;;;;;;;11.80;9.10;;;11.10;99.90;;;;;;5037134;28;20060;-75
2023/05/23 02:42:22;;;;;;;11.85;10.35;;;11.10;99.90;;;;;;5034406;28;20693;-75
2023/05/23 02:44:50;;;;;;;14.25;9.45;;;11.10;99.90;;;;;;5020789;28;20049;-77
2023/05/23 02:47:18;;;;;;;12.95;10.07;;;11.10;99.90;;;;;;5020454;28;20060;-76
2023/05/23 02:49:46;;;;;;;15.13;9.90;;;11.10;99.90;;;;;;5035617;28;20041;-74
2023/05/23 02:52:15;;;;;;;11.57;9.43;;;11.00;99.90;;;;;;5020603;28;20033;-74
2023/05/23 02:54:43;;;;;;;12.93;9.32;;;11.00;99.90;;;;;;5034970;28;20493;-76
2023/05/23 02:57:10;;;;;;;12.27;9.35;;;11.00;99.90;;;;;;5036832;28;20055;-76
2023/05/23 02:59:40;;;;;;;12.38;9.13;;;10.90;99.90;;;;;;5019982;28;20119;-76
2023/05/23 03:02:08;;;;;;;15.68;9.15;;;10.90;99.90;;;;;;5036618;28;20139;-76
2023/05/23 03:04:36;;;;;;;12.43;9.55;;;10.90;99.90;;;;;;5023297;28;20045;-75
2023/05/23 03:07:05;;;;;;;13.68;10.60;;;10.80;99.90;;;;;;5046935;28;20041;-74
2023/05/23 03:09:34;;;;;;;13.93;9.38;;;10.80;99.90;;;;;;5034684;28;20054;-74
2023/05/23 03:12:01;;;;;;;11.77;9.77;;;10.80;99.90;;;;;;5020692;28;20079;-75
2023/05/23 03:14:30;;;;;;;14.35;9.63;;;10.70;99.90;;;;;;5036085;28;20497;-76
2023/05/23 03:16:57;;;;;;;11.57;9.20;;;10.70;99.90;;;;;;5027084;28;20049;-76
2023/05/23 03:19:25;;;;;;;13.40;9.30;;;10.70;99.90;;;;;;5035681;28;20513;-76
2023/05/23 03:21:52;;;;;;;12.90;8.85;;;10.70;99.90;;;;;;5020347;28;20052;-76
2023/05/23 03:24:20;;;;;;;12.38;8.70;;;10.80;99.90;;;;;;5035631;28;20236;-76
2023/05/23 03:26:48;;;;;;;13.45;9.30;;;10.90;99.90;;;;;;5034584;28;20137;-74
2023/05/23 03:29:16;;;;;;;13.70;9.75;;;10.90;99.90;;;;;;5033171;28;20490;-75
2023/05/23 03:31:44;;;;;;;13.70;10.25;;;10.90;99.90;;;;;;5019545;28;20528;-74
2023/05/23 03:34:12;;;;;;;15.02;9.55;;;11.00;99.90;;;;;;5021150;28;20094;-75
2023/05/23 03:36:40;;;;;;;12.30;9.13;;;11.00;99.90;;;;;;5035563;28;20037;-75
2023/05/23 03:39:07;;;;;;;21.52;11.10;;;11.10;99.90;;;;;;5044203;28;20037;-76
2023/05/23 03:41:35;;;;;;;10.65;8.60;;;11.10;99.90;;;;;;5032634;28;20132;-76
2023/05/23 03:44:04;;;;;;;11.48;8.73;;;11.10;99.90;;;;;;5033801;28;20603;-74
2023/05/23 03:46:31;;;;;;;9.55;7.97;;;11.10;99.90;;;;;;5018426;28;20355;-77
2023/05/23 03:48:59;;;;;;;11.43;8.32;;;11.30;99.90;;;;;;5035446;28;20042;-75
2023/05/23 03:51:27;;;;;;;13.02;7.90;;;11.50;99.90;;;;;;5021345;28;20033;-76
2023/05/23 03:53:54;;;;;;;11.63;8.02;;;12.00;99.90;;;;;;5018450;28;20476;-76
2023/05/23 03:56:22;;;;;;;11.32;7.93;;;12.50;99.90;;;;;;5034754;28;20049;-75
2023/05/23 03:58:49;;;;;;;10.45;7.78;;;13.10;99.90;;;;;;5034923;28;20036;-75
2023/05/23 04:01:18;;;;;;;18.70;7.88;;;13.70;99.90;;;;;;5036771;28;20732;-75
2023/05/23 04:03:47;;;;;;;8.75;6.90;;;14.20;99.90;;;;;;5020728;28;20136;-76
2023/05/23 04:06:17;;;;;;;8.32;6.15;;;14.60;99.90;;;;;;5019159;28;20493;-74
2023/05/23 04:08:47;;;;;;;10.45;6.15;;;15.00;99.90;;;;;;5019486;28;20053;-74
2023/05/23 04:11:14;;;;;;;7.97;5.68;;;15.40;99.90;;;;;;5017619;28;20052;-74
2023/05/23 04:13:42;;;;;;;8.45;5.53;;;15.90;99.90;;;;;;5035440;28;20060;-74
2023/05/23 04:16:11;;;;;;;12.55;5.32;;;16.40;99.90;;;;;;5019877;28;20052;-75
2023/05/23 04:18:40;;;;;;;7.88;5.72;;;16.80;99.90;;;;;;5018817;28;20447;-75
2023/05/23 04:21:08;;;;;;;7.38;5.40;;;17.00;99.90;;;;;;5019498;28;20095;-75
2023/05/23 04:23:41;;;;;;;7.60;5.63;;;17.40;99.90;;;;;;5020186;28;20033;-74
2023/05/23 04:26:10;;;;;;;9.93;5.55;;;17.60;99.90;;;;;;5019563;28;20056;-75
2023/05/23 04:28:45;;;;;;;9.60;5.72;;;18.10;99.90;;;;;;5020423;28;20045;-75
2023/05/23 04:31:12;;;;;;;9.07;6.45;;;18.40;99.90;;;;;;5019453;28;20383;-75
2023/05/23 04:33:41;;;;;;;11.93;6.30;;;19.20;99.90;;;;;;5019658;28;20033;-74
2023/05/23 04:36:10;;;;;;;10.10;5.95;;;20.20;99.90;;;;;;5035687;28;20136;-76
2023/05/23 04:38:40;;;;;;;9.32;5.85;;;20.80;98.30;;;;;;5018805;28;20056;-75
2023/05/23 04:41:10;;;;;;;11.13;6.45;;;20.70;94.70;;;;;;5039990;28;20045;-75
2023/05/23 04:43:56;;;;;;;11.25;6.82;;;20.90;93.50;;;;;;5051293;28;20051;-76
2023/05/23 04:46:49;;;;;;;12.15;7.95;;;21.10;92.30;;;;;;5015896;28;20054;-75
2023/05/23 04:49:25;;;;;;;10.00;7.25;;;20.80;91.80;;;;;;5017004;28;20064;-75
2023/05/23 04:51:53;;;;;;;11.98;6.60;;;21.40;91.80;;;;;;5044726;28;20130;-75
2023/05/23 04:54:25;;;;;;;10.80;5.85;;;21.60;89.60;;;;;;5037190;28;20077;-76
2023/05/23 04:56:54;;;;;;;12.00;6.70;;;20.90;89.20;;;;;;5036593;28;20092;-76
2023/05/23 04:59:23;;;;;;;13.23;7.10;;;20.10;91.10;;;;;;5029281;28;20049;-76
2023/05/23 05:01:51;;;;;;;9.82;7.00;;;19.50;93.80;;;;;;5020480;28;20390;-76
2023/05/23 05:04:21;;;;;;;10.75;7.43;;;19.90;95.90;;;;;;5024172;28;20041;-74
2023/05/23 05:06:51;;;;;;;10.18;8.15;;;20.80;94.60;;;;;;5031094;28;20046;-77
2023/05/23 05:09:20;;;;;;;10.18;7.10;;;21.70;92.60;;;;;;5039097;28;20052;-74
2023/05/23 05:11:49;;;;;;;12.63;7.53;;;22.00;90.60;;;;;;5022199;28;20077;-75
2023/05/23 05:14:16;;;;;;;9.18;6.97;;;22.30;87.90;;;;;;5021851;28;20045;-76
2023/05/23 05:16:45;;;;;;;9.75;6.38;;;22.60;85.70;;;;;;5039025;28;20065;-76
2023/05/23 05:19:15;;;;;;;11.23;6.57;;;22.70;83.80;;;;;;5004774;28;20074;-76
2023/05/23 05:21:42;;;;;;;8.73;6.20;;;22.80;82.30;;;;;;5029581;28;20118;-74
2023/05/23 05:24:11;;;;;;;10.88;6.30;;;23.60;79.00;;;;;;5016941;28;20523;-75
2023/05/23 05:26:39;;;;;;;8.32;6.25;;;24.30;78.00;;;;;;5024286;28;20061;-73
2023/05/23 05:29:07;;;;;;;12.85;6.72;;;25.30;71.80;;;;;;5060246;28;20033;-74
2023/05/23 05:31:36;;;;;;;7.90;6.20;;;25.40;68.70;;;;;;5017856;28;20053;-75
2023/05/23 05:34:05;;;;;;;9.52;5.95;;;26.10;66.00;;;;;;5036889;28;20038;-76
2023/05/23 05:36:33;;;;;;;8.63;5.85;;;26.30;63.70;;;;;;5029617;28;20072;-75
2023/05/23 05:39:01;;;;;;;8.27;5.35;;;26.30;62.10;;;;;;5045435;28;20052;-75
2023/05/23 05:41:29;;;;;;;7.93;5.63;;;26.40;61.20;;;;;;5028634;28;20052;-75
2023/05/23 05:43:57;;;;;;;14.70;8.60;;;26.10;61.40;;;;;;5031603;28;20034;-74
2023/05/23 05:46:25;;;;;;;13.70;6.72;;;26.10;60.50;;;;;;5038399;28;20374;-76
2023/05/23 05:48:53;;;;;;;7.53;5.88;;;26.00;60.80;;;;;;5029611;28;20071;-74
2023/05/23 05:51:22;;;;;;;9.40;6.47;;;25.60;62.30;;;;;;5021668;28;20101;-76
2023/05/23 05:53:50;;;;;;;12.55;8.57;;;25.40;61.70;;;;;;5015110;28;20116;-75
2023/05/23 05:56:18;;;;;;;8.55;6.28;;;25.30;62.10;;;;;;5022326;28;20568;-76
2023/05/23 05:58:46;;;;;;;9.80;7.82;;;25.30;62.90;;;;;;5022324;28;20076;-75
2023/05/23 06:01:17;;;;;;;9.50;5.75;;;25.20;63.00;;;;;;5021709;28;20052;-75
2023/05/23 06:03:44;;;;;;;10.50;5.88;;;24.80;63.10;;;;;;5021064;28;20046;-75
2023/05/23 06:06:12;;;;;;;9.00;5.60;;;24.50;64.50;;;;;;5037419;28;20100;-75
2023/05/23 06:08:42;;;;;;;9.63;5.88;;;23.00;66.30;;;;;;5039471;28;20120;-75
2023/05/23 06:11:13;;;;;;;6.25;4.95;;;22.50;69.50;;;;;;5037928;28;20053;-74
2023/05/23 06:13:41;;;;;;;9.48;5.65;;;22.20;71.00;;;;;;5037653;28;20041;-74
2023/05/23 06:16:10;;;;;;;10.45;5.90;;;21.90;72.60;;;;;;5037363;28;20073;-75
2023/05/23 06:18:38;;;;;;;10.35;5.65;;;21.90;74.10;;;;;;5038167;28;20041;-77
2023/05/23 06:21:06;;;;;;;7.50;5.57;;;22.30;74.30;;;;;;5022092;28;20049;-74
2023/05/23 06:23:35;;;;;;;14.70;10.82;;;22.30;73.90;;;;;;5054516;28;20052;-75
2023/05/23 06:26:06;;;;;;;10.60;6.10;;;21.80;74.80;;;;;;5057970;28;20044;-76
2023/05/23 06:28:35;;;;;;;16.20;10.32;;;21.70;76.90;;;;;;5033435;28;20099;-74
2023/05/23 06:31:02;;;;;;;14.88;6.35;;;21.80;77.30;;;;;;5026885;28;20528;-77
2023/05/23 06:33:32;;;;;;;10.45;6.40;;;21.70;77.90;;;;;;5034140;28;20046;-75
2023/05/23 06:35:59;;;;;;;12.02;6.60;;;21.80;78.50;;;;;;5033383;28;20131;-75
2023/05/23 06:38:29;;;;;;;8.77;5.88;;;22.10;78.50;;;;;;5010144;28;20300;-76
2023/05/23 06:40:57;;;;;;;8.50;6.78;;;22.30;77.80;;;;;;5028581;28;20358;-76
2023/05/23 06:43:25;;;;;;;10.30;6.45;;;22.50;77.20;;;;;;5032864;28;20069;-75
2023/05/23 06:45:54;;;;;;;11.88;7.07;;;22.70;76.30;;;;;;5029526;28;20053;-74
2023/05/23 06:48:22;;;;;;;13.43;6.68;;;23.00;76.50;;;;;;5043896;28;20033;-75
2023/05/23 06:50:51;;;;;;;11.73;6.75;;;23.20;75.60;;;;;;5034715;28;20060;-76
2023/05/23 06:53:20;;;;;;;10.40;6.28;;;23.40;74.80;;;;;;5029901;28;20045;-75
2023/05/23 06:55:49;;;;;;;8.57;6.60;;;23.60;73.10;;;;;;5029163;28;20481;-73
2023/05/23 06:58:23;;;;;;;11.23;7.13;;;23.70;73.80;;;;;;5037557;28;20045;-75
2023/05/23 07:00:51;;;;;;;11.73;6.75;;;23.90;73.40;;;;;;5052965;28;20037;-75
2023/05/23 07:03:26;;;;;;;9.43;6.68;;;23.80;71.80;;;;;;5044236;28;20051;-74
2023/05/23 07:05:57;;;;;;;12.35;6.22;;;23.60;70.20;;;;;;5026866;28;20053;-74
2023/05/23 07:08:25;;;;;;;10.25;7.15;;;23.20;71.40;;;;;;5020541;28;20075;-76
2023/05/23 07:11:00;;;;;;;12.73;7.45;;;23.00;73.80;;;;;;5051386;28;20210;-75
2023/05/23 07:13:47;;;;;;;9.15;6.55;;;23.10;73.60;;;;;;5036506;28;20437;-74
2023/05/23 07:16:22;;;;;;;10.95;6.53;;;22.50;75.00;;;;;;5026141;28;20135;-75
2023/05/23 07:19:04;;;;;;;9.38;5.85;;;22.50;75.10;;;;;;5020275;28;20049;-75
2023/05/23 07:21:36;;;;;;;9.18;5.47;;;22.00;75.80;;;;;;5026735;28;20132;-74
2023/05/23 07:24:05;;;;;;;8.27;5.00;;;22.20;75.90;;;;;;5026442;28;20136;-74
2023/05/23 07:26:33;;;;;;;7.47;5.20;;;22.40;73.70;;;;;;5049801;28;20127;-76
2023/05/23 07:29:00;;;;;;;5.38;4.53;;;22.80;73.40;;;;;;5019627;28;20220;-74
2023/05/23 07:31:28;;;;;;;6.78;4.95;;;23.30;72.60;;;;;;5042305;28;20041;-75
2023/05/23 07:33:58;;;;;;;11.57;8.15;;;23.60;71.90;;;;;;5025896;28;20103;-74
2023/05/23 07:36:34;;;;;;;9.45;6.80;;;23.90;71.90;;;;;;5026874;28;20049;-74
2023/05/23 07:39:03;;;;;;;7.90;6.65;;;24.20;69.30;;;;;;5026232;28;20517;-74
2023/05/23 07:41:31;;;;;;;9.55;6.35;;;24.50;68.60;;;;;;5026983;28;20053;-74
2023/05/23 07:43:58;;;;;;;9.88;7.40;;;24.50;69.00;;;;;;5050276;28;20038;-76
2023/05/23 07:46:26;;;;;;;8.75;5.97;;;24.40;70.70;;;;;;5026219;28;20094;-76
2023/05/23 07:48:54;;;;;;;6.55;5.35;;;24.50;69.80;;;;;;5034213;28;20045;-74
2023/05/23 07:51:21;;;;;;;8.02;5.40;;;24.50;71.60;;;;;;5037162;28;20041;-75
2023/05/23 07:53:51;;;;;;;7.60;6.20;;;24.30;73.10;;;;;;5035686;28;21042;-75
2023/05/23 07:56:22;;;;;;;7.80;5.78;;;23.90;72.80;;;;;;5039010;28;20227;-75
2023/05/23 07:58:49;;;;;;;7.95;6.15;;;23.90;72.20;;;;;;5020952;28;20233;-74
2023/05/23 08:01:17;;;;;;;9.18;5.45;;;24.10;72.10;;;;;;5043452;28;20034;-75
2023/05/23 08:04:03;;;;;;;9.38;5.03;;;24.40;69.80;;;;;;5014366;28;20038;-74
2023/05/23 08:06:39;;;;;;;;;;;24.60;64.80;;;;;;5010640;28;20561;-75
2023/05/23 08:09:10;;;;;;;6.85;4.80;;;24.90;63.40;;;;;;5025372;28;19927;-75
2023/05/23 08:11:44;;;;;;;9.02;5.22;;;24.90;62.10;;;;;;5009245;28;20061;-74
2023/05/23 08:14:12;;;;;;;10.60;5.80;;;25.10;60.70;;;;;;5025881;28;20050;-77
2023/05/23 08:16:39;;;;;;;8.35;5.35;;;25.10;61.00;;;;;;5026386;28;20104;-74
2023/05/23 08:19:12;;;;;;;11.38;6.80;;;24.90;61.00;;;;;;5025749;28;20070;-75
2023/05/23 08:21:40;;;;;;;7.57;5.82;;;25.00;61.50;;;;;;5039970;28;20137;-77
2023/05/23 08:24:07;;;;;;;8.00;5.50;;;25.10;59.40;;;;;;5037113;28;20037;-75
2023/05/23 08:26:36;;;;;;;8.30;4.80;;;25.20;58.60;;;;;;5047884;28;20045;-75
2023/05/23 08:29:08;;;;;;;8.32;5.15;;;25.40;58.60;;;;;;5051185;28;20045;-75
2023/05/23 08:31:35;;;;;;;10.80;7.50;;;25.40;58.80;;;;;;5045277;28;20673;-74
2023/05/23 08:34:04;;;;;;;7.28;4.90;;;25.60;58.40;;;;;;5079344;28;20037;-76
2023/05/23 08:36:33;;;;;;;5.95;4.60;;;25.50;56.40;;;;;;5082052;28;20122;-75
2023/05/23 08:39:00;;;;;;;11.43;5.00;;;25.30;57.60;;;;;;5052106;28;20045;-75
2023/05/23 08:41:31;;;;;;;5.72;4.60;;;25.30;57.40;;;;;;5052192;28;20048;-74
2023/05/23 08:44:07;;;;;;;9.73;7.88;;;25.10;58.00;;;;;;5069250;28;20049;-76
2023/05/23 08:46:45;;;;;;;7.68;6.03;;;25.40;58.20;;;;;;5033880;28;20103;-75
2023/05/23 08:49:20;;;;;;;7.35;4.93;;;25.40;58.30;;;;;;5039784;28;20037;-76
2023/05/23 08:51:50;;;;;;;8.18;4.43;;;25.30;58.00;;;;;;5048786;28;20110;-75
2023/05/23 08:54:21;;;;;;;8.13;4.72;;;25.50;56.60;;;;;;5051103;28;20052;-75
2023/05/23 08:56:51;;;;;;;10.27;5.03;;;25.70;56.60;;;;;;5037935;28;20093;-75
2023/05/23 08:59:22;;;;;;;6.95;5.60;;;25.90;56.40;;;;;;5039144;28;20040;-75
2023/05/23 09:01:54;;;;;;;6.63;4.40;;;26.10;57.50;;;;;;5054570;28;20501;-74
2023/05/23 09:04:22;;;;;;;5.82;4.53;;;26.20;58.10;;;;;;5056562;28;20045;-74
2023/05/23 09:06:58;;;;;;;6.70;4.45;;;26.30;57.10;;;;;;5036925;28;20048;-76
2023/05/23 09:09:26;;;;;;;7.68;5.18;;;26.30;57.50;;;;;;5032412;28;20528;-76
2023/05/23 09:11:54;;;;;;;7.82;4.47;;;26.10;59.80;;;;;;5032844;28;20041;-76
2023/05/23 09:14:23;;;;;;;12.23;5.88;;;26.20;58.20;;;;;;5048603;28;20060;-75
2023/05/23 09:17:02;;;;;;;11.70;4.85;;;26.40;58.30;;;;;;5055875;28;20108;-74
2023/05/23 09:19:30;;;;;;;6.75;4.63;;;26.50;57.70;;;;;;5063930;28;20126;-76
2023/05/23 09:22:03;;;;;;;5.68;4.35;;;26.60;56.60;;;;;;5030955;28;20128;-74
2023/05/23 09:24:40;;;;;;;8.55;4.25;;;26.50;57.50;;;;;;5037763;28;20080;-75
2023/05/23 09:27:10;;;;;;;9.07;4.95;;;26.40;58.10;;;;;;5040305;28;20462;-75
2023/05/23 09:29:40;;;;;;;7.60;4.82;;;26.60;58.80;;;;;;5022584;28;20042;-75
2023/05/23 09:32:16;;;;;;;8.10;5.28;;;26.60;59.90;;;;;;5036973;28;20046;-75
2023/05/23 09:34:55;;;;;;;7.72;4.97;;;26.50;59.50;;;;;;5038259;28;20041;-76
2023/05/23 09:37:30;;;;;;;7.80;5.72;;;26.50;59.90;;;;;;5036927;28;20048;-75
2023/05/23 09:39:58;;;;;;;13.02;6.80;;;26.40;63.80;;;;;;5036294;28;20493;-75
2023/05/23 09:42:31;;;;;;;8.27;5.95;;;26.20;64.00;;;;;;5037778;28;20052;-74
2023/05/23 09:45:01;;;;;;;10.50;5.95;;;26.20;63.40;;;;;;5038180;28;20529;-74
2023/05/23 09:47:31;;;;;;;8.98;6.25;;;26.10;63.30;;;;;;5023655;28;20106;-75
2023/05/23 09:49:58;;;;;;;7.97;5.40;;;26.20;64.80;;;;;;5036432;28;20513;-75
2023/05/23 09:52:27;;;;;;;13.00;5.95;;;26.30;63.40;;;;;;5039354;28;20045;-76
2023/05/23 09:54:55;;;;;;;12.43;6.18;;;26.50;63.10;;;;;;5040884;28;20041;-75
2023/05/23 09:57:24;;;;;;;9.60;6.10;;;26.70;61.50;;;;;;5038848;28;20262;-75
2023/05/23 09:59:54;;;;;;;7.45;5.47;;;26.80;62.00;;;;;;5037758;28;20052;-75
2023/05/23 10:02:53;;;;;;;9.68;4.93;;;26.90;59.30;;;;;;5040122;28;20042;-75
2023/05/23 10:05:34;;;;;;;6.43;4.38;;;27.00;57.30;;;;;;5038342;28;20037;-75
2023/05/23 10:08:06;;;;;;;7.43;4.55;;;27.10;55.70;;;;;;5038690;28;20111;-74
2023/05/23 10:10:45;;;;;;;5.32;4.20;;;27.20;55.00;;;;;;5038031;28;20053;-75
2023/05/23 10:13:13;;;;;;;11.65;7.10;;;27.50;53.90;;;;;;5036215;28;20128;-75
2023/05/23 10:15:42;;;;;;;12.07;6.82;;;27.60;53.90;;;;;;5038147;28;20067;-76
2023/05/23 10:18:21;;;;;;;8.50;4.55;;;27.80;55.50;;;;;;5035255;28;20041;-74
2023/05/23 10:20:50;;;;;;;6.35;5.30;;;28.00;53.00;;;;;;5038542;28;20389;-75
2023/05/23 10:23:20;;;;;;;6.45;4.57;;;27.70;53.20;;;;;;5035341;28;20037;-75
2023/05/23 10:25:49;;;;;;;8.25;6.13;;;27.50;53.20;;;;;;5043907;28;20060;-75
2023/05/23 10:28:16;;;;;;;8.48;6.00;;;27.70;53.20;;;;;;5051274;28;20136;-75
2023/05/23 10:30:45;;;;;;;7.78;5.70;;;27.90;53.80;;;;;;5049862;28;20080;-77
2023/05/23 10:33:16;;;;;;;6.47;4.18;;;28.20;53.60;;;;;;5047487;28;20053;-74
2023/05/23 10:35:51;;;;;;;6.55;4.40;;;28.50;52.10;;;;;;5043739;28;20045;-76
2023/05/23 10:38:26;;;;;;;;;;;28.70;52.30;;;;;;5039969;28;20057;-75
2023/05/23 10:41:01;;;;;;;5.65;4.32;;;28.70;51.60;;;;;;5041988;28;19952;-77
2023/05/23 10:43:35;;;;;;;5.80;3.90;;;28.40;50.50;;;;;;5037980;28;20052;-76
2023/05/23 10:46:02;;;;;;;5.72;4.28;;;28.10;49.80;;;;;;5034961;28;20041;-74
2023/05/23 10:48:35;;;;;;;6.00;4.25;;;28.00;50.30;;;;;;5036055;28;20042;-76
2023/05/23 10:51:05;;;;;;;7.15;4.53;;;28.10;52.70;;;;;;5040742;28;20056;-76
2023/05/23 10:53:35;;;;;;;7.00;4.75;;;27.80;53.20;;;;;;5041755;28;20051;-78
2023/05/23 10:56:04;;;;;;;10.00;5.47;;;27.50;54.20;;;;;;5037133;28;20043;-75
2023/05/23 10:58:33;;;;;;;8.40;5.97;;;27.90;55.90;;;;;;5035373;28;20136;-74
2023/05/23 11:01:02;;;;;;;8.20;5.40;;;28.30;55.20;;;;;;5035311;28;20046;-75
2023/05/23 11:03:50;;;;;;;6.95;4.63;;;28.60;54.00;;;;;;5034619;28;20037;-74
2023/05/23 11:06:34;;;;;;;10.52;5.22;;;28.70;52.70;;;;;;5035966;28;20046;-74
2023/05/23 11:09:06;;;;;;;6.68;4.82;;;28.80;53.00;;;;;;5035124;28;20507;-75
2023/05/23 11:12:08;;;;;;;9.25;5.07;;;28.60;52.30;;;;;;5037402;28;20068;-76
2023/05/23 11:14:53;;;;;;;7.60;5.03;;;28.50;52.40;;;;;;5030869;28;20056;-75
2023/05/23 11:17:31;;;;;;;7.23;5.10;;;28.60;52.60;;;;;;5036777;28;20530;-74
2023/05/23 11:20:05;;;;;;;6.68;4.65;;;28.70;52.10;;;;;;5036531;28;20049;-75
2023/05/23 11:22:33;;;;;;;7.82;6.38;;;29.00;51.60;;;;;;5043287;28;20048;-75
2023/05/23 11:25:02;;;;;;;6.43;4.45;;;29.10;51.60;;;;;;5045116;28;20508;-76
2023/05/23 11:27:33;;;;;;;4.63;4.13;;;28.90;49.90;;;;;;5045583;28;20504;-75
2023/05/23 11:30:03;;;;;;;6.45;4.22;;;28.60;48.90;;;;;;5044500;28;20072;-75
2023/05/23 11:32:31;;;;;;;8.32;4.75;;;28.60;49.60;;;;;;5044848;28;20052;-74
2023/05/23 11:35:05;;;;;;;9.35;4.43;;;28.60;50.30;;;;;;5045333;28;20130;-73
2023/05/23 11:37:33;;;;;;;6.13;4.38;;;28.60;51.60;;;;;;5043843;28;20382;-74
2023/05/23 11:40:31;;;;;;;8.38;4.70;;;28.40;52.00;;;;;;5044210;28;20052;-75
2023/05/23 11:42:59;;;;;;;9.70;4.75;;;28.10;51.70;;;;;;5044503;28;20054;-75
2023/05/23 11:45:28;;;;;;;7.97;4.30;;;28.10;52.50;;;;;;5044481;28;20144;-74
2023/05/23 11:47:55;;;;;;;7.60;4.78;;;28.30;52.60;;;;;;5044517;28;20045;-75
2023/05/23 11:50:24;;;;;;;7.07;4.28;;;28.30;51.40;;;;;;5043519;28;20394;-75
2023/05/23 11:52:54;;;;;;;7.55;4.30;;;27.90;49.90;;;;;;5045176;28;20256;-75
2023/05/23 11:55:22;;;;;;;5.82;4.45;;;27.70;50.90;;;;;;5044598;28;20139;-75
2023/05/23 11:57:50;;;;;;;5.32;4.60;;;27.40;50.30;;;;;;5045219;28;20049;-75
2023/05/23 12:00:19;;;;;;;8.63;4.07;;;27.20;51.00;;;;;;5045392;28;20083;-75
2023/05/23 12:02:47;;;;;;;7.05;4.75;;;27.20;51.50;;;;;;5045034;28;20045;-74
2023/05/23 12:05:15;;;;;;;6.55;4.53;;;27.10;51.70;;;;;;5044758;28;20041;-75
2023/05/23 12:07:45;;;;;;;7.50;4.50;;;27.20;52.10;;;;;;5037992;28;20064;-76
2023/05/23 12:10:13;;;;;;;6.47;4.13;;;27.20;52.10;;;;;;5044504;28;20056;-75
2023/05/23 12:12:42;;;;;;;7.68;4.45;;;27.20;52.20;;;;;;5045484;28;20488;-75
2023/05/23 12:15:10;;;;;;;7.10;4.68;;;27.40;51.40;;;;;;5043955;28;20136;-75
2023/05/23 12:17:38;;;;;;;11.38;4.25;;;27.60;51.60;;;;;;5045400;28;20570;-76
2023/05/23 12:20:07;;;;;;;7.50;4.65;;;27.80;51.20;;;;;;5044514;28;20037;-75
2023/05/23 12:22:35;;;;;;;9.43;4.55;;;28.10;51.00;;;;;;5038068;28;20049;-75
2023/05/23 12:25:08;;;;;;;6.47;4.30;;;28.30;50.40;;;;;;5038081;28;20041;-74
2023/05/23 12:27:37;;;;;;;6.95;4.72;;;28.30;48.70;;;;;;5037053;28;20053;-75
2023/05/23 12:30:06;;;;;;;8.48;3.78;;;28.50;48.80;;;;;;5036076;28;20508;-76
2023/05/23 12:32:34;;;;;;;5.80;3.88;;;28.40;48.60;;;;;;5036338;28;20045;-76
2023/05/23 12:35:02;;;;;;;6.05;3.95;;;28.50;49.20;;;;;;5036802;28;20041;-75
2023/05/23 12:37:30;;;;;;;5.88;4.10;;;28.20;48.80;;;;;;5024355;28;20439;-74
2023/05/23 12:39:57;;;;;;;4.70;4.15;;;28.00;49.40;;;;;;5033245;28;20053;-76
2023/05/23 12:42:26;;;;;;;7.78;4.10;;;28.00;49.80;;;;;;5039394;28;20076;-75
2023/05/23 12:44:54;;;;;;;7.38;4.40;;;28.10;49.70;;;;;;5034698;28;20111;-74
2023/05/23 12:47:21;;;;;;;5.45;4.00;;;28.00;49.50;;;;;;5018925;28;20049;-73
2023/05/23 12:49:49;;;;;;;6.90;4.47;;;28.00;49.00;;;;;;5046223;28;20045;-73
2023/05/23 12:52:16;;;;;;;6.80;4.28;;;28.00;49.00;;;;;;5054169;28;20117;-75
2023/05/23 12:54:44;;;;;;;6.72;5.35;;;27.80;48.60;;;;;;5056690;28;20617;-76
2023/05/23 12:57:11;;;;;;;10.15;5.85;;;27.90;48.90;;;;;;5051367;28;20040;-75